sensor_id;sensor_type;location;lat;lon;timestamp;P1;durP1;ratioP1;P2;durP2;ratioP2
74894;SDS011;63447;49.446;8.666;2023-12-29T00:00:10;10.77;;;5.60;;
74894;SDS011;63447;49.446;8.666;2023-12-29T00:02:41;8.40;;;4.55;;
74894;SDS011;63447;49.446;8.666;2023-12-29T00:05:06;9.23;;;4.57;;
74894;SDS011;63447;49.446;8.666;2023-12-29T00:07:34;8.18;;;4.78;;
74894;SDS011;63447;49.446;8.666;2023-12-29T00:10:02;9.60;;;4.65;;
74894;SDS011;63447;49.446;8.666;2023-12-29T00:12:28;9.48;;;4.85;;
74894;SDS011;63447;49.446;8.666;2023-12-29T00:14:54;9.10;;;4.55;;
74894;SDS011;63447;49.446;8.666;2023-12-29T00:17:20;8.38;;;4.78;;
74894;SDS011;63447;49.446;8.666;2023-12-29T00:19:45;8.87;;;5.17;;
74894;SDS011;63447;49.446;8.666;2023-12-29T00:22:11;8.35;;;4.40;;
74894;SDS011;63447;49.446;8.666;2023-12-29T00:24:36;9.63;;;5.27;;
74894;SDS011;63447;49.446;8.666;2023-12-29T00:27:01;10.90;;;5.53;;
74894;SDS011;63447;49.446;8.666;2023-12-29T00:29:27;10.63;;;5.55;;
74894;SDS011;63447;49.446;8.666;2023-12-29T00:31:57;10.30;;;6.03;;
74894;SDS011;63447;49.446;8.666;2023-12-29T00:34:27;10.48;;;6.00;;
74894;SDS011;63447;49.446;8.666;2023-12-29T00:36:52;9.25;;;5.15;;
74894;SDS011;63447;49.446;8.666;2023-12-29T00:39:17;9.20;;;5.32;;
74894;SDS011;63447;49.446;8.666;2023-12-29T00:41:53;9.80;;;5.07;;
74894;SDS011;63447;49.446;8.666;2023-12-29T00:44:23;10.57;;;5.88;;
74894;SDS011;63447;49.446;8.666;2023-12-29T00:46:49;12.80;;;5.65;;
74894;SDS011;63447;49.446;8.666;2023-12-29T00:49:20;10.80;;;5.25;;
74894;SDS011;63447;49.446;8.666;2023-12-29T00:51:46;9.60;;;5.00;;
74894;SDS011;63447;49.446;8.666;2023-12-29T00:54:14;9.07;;;5.00;;
74894;SDS011;63447;49.446;8.666;2023-12-29T00:56:47;9.90;;;4.78;;
74894;SDS011;63447;49.446;8.666;2023-12-29T00:59:18;9.45;;;4.70;;
74894;SDS011;63447;49.446;8.666;2023-12-29T01:01:44;11.60;;;4.93;;
74894;SDS011;63447;49.446;8.666;2023-12-29T01:04:11;8.30;;;5.00;;
74894;SDS011;63447;49.446;8.666;2023-12-29T01:06:37;9.38;;;4.88;;
74894;SDS011;63447;49.446;8.666;2023-12-29T01:09:07;8.50;;;5.03;;
74894;SDS011;63447;49.446;8.666;2023-12-29T01:11:36;10.30;;;4.88;;
74894;SDS011;63447;49.446;8.666;2023-12-29T01:14:01;12.40;;;5.50;;
74894;SDS011;63447;49.446;8.666;2023-12-29T01:16:29;9.00;;;4.57;;
74894;SDS011;63447;49.446;8.666;2023-12-29T01:18:57;10.43;;;5.32;;
74894;SDS011;63447;49.446;8.666;2023-12-29T01:21:22;9.45;;;5.35;;
74894;SDS011;63447;49.446;8.666;2023-12-29T01:23:47;9.57;;;4.70;;
74894;SDS011;63447;49.446;8.666;2023-12-29T01:26:15;8.80;;;4.85;;
74894;SDS011;63447;49.446;8.666;2023-12-29T01:28:40;10.10;;;5.32;;
74894;SDS011;63447;49.446;8.666;2023-12-29T01:31:08;9.13;;;4.47;;
74894;SDS011;63447;49.446;8.666;2023-12-29T01:33:36;8.98;;;4.70;;
74894;SDS011;63447;49.446;8.666;2023-12-29T01:36:01;8.57;;;3.97;;
74894;SDS011;63447;49.446;8.666;2023-12-29T01:38:29;9.35;;;4.85;;
74894;SDS011;63447;49.446;8.666;2023-12-29T01:40:57;8.65;;;4.75;;
74894;SDS011;63447;49.446;8.666;2023-12-29T01:43:22;10.35;;;5.00;;
74894;SDS011;63447;49.446;8.666;2023-12-29T01:45:50;7.70;;;4.68;;
74894;SDS011;63447;49.446;8.666;2023-12-29T01:48:18;8.35;;;4.63;;
74894;SDS011;63447;49.446;8.666;2023-12-29T01:50:47;7.40;;;4.15;;
74894;SDS011;63447;49.446;8.666;2023-12-29T01:53:17;9.30;;;4.90;;
74894;SDS011;63447;49.446;8.666;2023-12-29T01:55:48;8.43;;;4.60;;
74894;SDS011;63447;49.446;8.666;2023-12-29T01:58:14;9.18;;;4.68;;
74894;SDS011;63447;49.446;8.666;2023-12-29T02:00:42;9.02;;;4.53;;
74894;SDS011;63447;49.446;8.666;2023-12-29T02:03:10;8.98;;;4.70;;
74894;SDS011;63447;49.446;8.666;2023-12-29T02:05:38;9.82;;;4.90;;
74894;SDS011;63447;49.446;8.666;2023-12-29T02:08:05;8.57;;;4.45;;
74894;SDS011;63447;49.446;8.666;2023-12-29T02:10:31;8.88;;;4.90;;
74894;SDS011;63447;49.446;8.666;2023-12-29T02:12:57;8.35;;;4.57;;
74894;SDS011;63447;49.446;8.666;2023-12-29T02:15:25;11.00;;;5.22;;
74894;SDS011;63447;49.446;8.666;2023-12-29T02:17:56;8.75;;;4.93;;
74894;SDS011;63447;49.446;8.666;2023-12-29T02:20:31;9.10;;;4.75;;
74894;SDS011;63447;49.446;8.666;2023-12-29T02:22:59;11.15;;;4.72;;
74894;SDS011;63447;49.446;8.666;2023-12-29T02:25:26;9.18;;;4.85;;
74894;SDS011;63447;49.446;8.666;2023-12-29T02:27:59;10.48;;;5.40;;
74894;SDS011;63447;49.446;8.666;2023-12-29T02:33:05;9.05;;;5.40;;
74894;SDS011;63447;49.446;8.666;2023-12-29T02:35:35;8.50;;;4.53;;
74894;SDS011;63447;49.446;8.666;2023-12-29T02:38:07;9.27;;;5.13;;
74894;SDS011;63447;49.446;8.666;2023-12-29T02:40:32;9.07;;;5.15;;
74894;SDS011;63447;49.446;8.666;2023-12-29T02:43:02;10.07;;;4.35;;
74894;SDS011;63447;49.446;8.666;2023-12-29T02:45:28;8.77;;;4.72;;
74894;SDS011;63447;49.446;8.666;2023-12-29T02:47:55;9.02;;;4.53;;
74894;SDS011;63447;49.446;8.666;2023-12-29T02:50:21;9.63;;;5.00;;
74894;SDS011;63447;49.446;8.666;2023-12-29T02:52:49;8.55;;;4.90;;
74894;SDS011;63447;49.446;8.666;2023-12-29T02:55:19;8.73;;;5.03;;
74894;SDS011;63447;49.446;8.666;2023-12-29T02:57:49;10.95;;;5.15;;
74894;SDS011;63447;49.446;8.666;2023-12-29T03:00:17;8.40;;;5.07;;
74894;SDS011;63447;49.446;8.666;2023-12-29T03:02:42;9.38;;;4.93;;
74894;SDS011;63447;49.446;8.666;2023-12-29T03:05:13;8.77;;;4.80;;
74894;SDS011;63447;49.446;8.666;2023-12-29T03:07:39;8.63;;;5.07;;
74894;SDS011;63447;49.446;8.666;2023-12-29T03:10:08;9.93;;;4.70;;
74894;SDS011;63447;49.446;8.666;2023-12-29T03:12:34;8.07;;;4.60;;
74894;SDS011;63447;49.446;8.666;2023-12-29T03:14:59;9.35;;;4.50;;
74894;SDS011;63447;49.446;8.666;2023-12-29T03:17:29;9.13;;;4.95;;
74894;SDS011;63447;49.446;8.666;2023-12-29T03:19:54;8.18;;;4.85;;
74894;SDS011;63447;49.446;8.666;2023-12-29T03:22:23;10.00;;;4.50;;
74894;SDS011;63447;49.446;8.666;2023-12-29T03:24:53;9.20;;;4.18;;
74894;SDS011;63447;49.446;8.666;2023-12-29T03:27:18;10.00;;;4.55;;
74894;SDS011;63447;49.446;8.666;2023-12-29T03:29:44;8.93;;;4.60;;
74894;SDS011;63447;49.446;8.666;2023-12-29T03:32:09;8.82;;;4.82;;
74894;SDS011;63447;49.446;8.666;2023-12-29T03:34:35;7.85;;;4.25;;
74894;SDS011;63447;49.446;8.666;2023-12-29T03:37:00;10.02;;;4.53;;
74894;SDS011;63447;49.446;8.666;2023-12-29T03:39:28;8.45;;;4.63;;
74894;SDS011;63447;49.446;8.666;2023-12-29T03:41:57;7.80;;;4.45;;
74894;SDS011;63447;49.446;8.666;2023-12-29T03:44:22;8.97;;;4.43;;
74894;SDS011;63447;49.446;8.666;2023-12-29T03:46:47;7.17;;;4.10;;
74894;SDS011;63447;49.446;8.666;2023-12-29T03:49:14;7.32;;;4.22;;
74894;SDS011;63447;49.446;8.666;2023-12-29T03:51:39;8.40;;;4.38;;
74894;SDS011;63447;49.446;8.666;2023-12-29T03:54:09;7.82;;;4.47;;
74894;SDS011;63447;49.446;8.666;2023-12-29T03:56:37;7.80;;;4.45;;
74894;SDS011;63447;49.446;8.666;2023-12-29T03:59:05;9.82;;;4.30;;
74894;SDS011;63447;49.446;8.666;2023-12-29T04:01:32;8.07;;;4.40;;
74894;SDS011;63447;49.446;8.666;2023-12-29T04:03:58;8.20;;;4.25;;
74894;SDS011;63447;49.446;8.666;2023-12-29T04:06:24;8.68;;;4.60;;
74894;SDS011;63447;49.446;8.666;2023-12-29T04:08:51;9.80;;;4.88;;
74894;SDS011;63447;49.446;8.666;2023-12-29T04:11:17;9.60;;;5.10;;
74894;SDS011;63447;49.446;8.666;2023-12-29T04:13:42;9.60;;;5.30;;
74894;SDS011;63447;49.446;8.666;2023-12-29T04:16:07;11.10;;;5.63;;
74894;SDS011;63447;49.446;8.666;2023-12-29T04:18:33;11.77;;;5.97;;
74894;SDS011;63447;49.446;8.666;2023-12-29T04:21:01;12.63;;;6.53;;
74894;SDS011;63447;49.446;8.666;2023-12-29T04:23:29;11.75;;;6.03;;
74894;SDS011;63447;49.446;8.666;2023-12-29T04:25:54;10.77;;;6.10;;
74894;SDS011;63447;49.446;8.666;2023-12-29T04:28:21;12.15;;;6.10;;
74894;SDS011;63447;49.446;8.666;2023-12-29T04:30:46;11.30;;;5.85;;
74894;SDS011;63447;49.446;8.666;2023-12-29T04:33:14;12.05;;;6.25;;
74894;SDS011;63447;49.446;8.666;2023-12-29T04:35:42;11.52;;;6.30;;
74894;SDS011;63447;49.446;8.666;2023-12-29T04:38:12;10.30;;;5.75;;
74894;SDS011;63447;49.446;8.666;2023-12-29T04:40:42;14.48;;;6.15;;
74894;SDS011;63447;49.446;8.666;2023-12-29T04:43:09;10.18;;;5.82;;
74894;SDS011;63447;49.446;8.666;2023-12-29T04:45:36;9.52;;;5.40;;
74894;SDS011;63447;49.446;8.666;2023-12-29T04:48:02;10.10;;;5.75;;
74894;SDS011;63447;49.446;8.666;2023-12-29T04:50:33;11.63;;;5.75;;
74894;SDS011;63447;49.446;8.666;2023-12-29T04:52:58;9.90;;;5.63;;
74894;SDS011;63447;49.446;8.666;2023-12-29T04:55:26;10.93;;;5.97;;
74894;SDS011;63447;49.446;8.666;2023-12-29T04:57:54;9.80;;;5.70;;
74894;SDS011;63447;49.446;8.666;2023-12-29T05:00:19;10.32;;;5.55;;
74894;SDS011;63447;49.446;8.666;2023-12-29T05:02:44;10.18;;;5.38;;
74894;SDS011;63447;49.446;8.666;2023-12-29T05:05:10;10.00;;;5.43;;
74894;SDS011;63447;49.446;8.666;2023-12-29T05:07:36;10.65;;;5.60;;
74894;SDS011;63447;49.446;8.666;2023-12-29T05:12:28;9.45;;;5.10;;
74894;SDS011;63447;49.446;8.666;2023-12-29T05:14:55;10.02;;;5.05;;
74894;SDS011;63447;49.446;8.666;2023-12-29T05:17:20;8.13;;;4.57;;
74894;SDS011;63447;49.446;8.666;2023-12-29T05:19:45;10.75;;;5.28;;
74894;SDS011;63447;49.446;8.666;2023-12-29T05:24:42;9.32;;;5.05;;
74894;SDS011;63447;49.446;8.666;2023-12-29T05:27:08;9.73;;;4.88;;
74894;SDS011;63447;49.446;8.666;2023-12-29T05:29:33;8.90;;;4.93;;
74894;SDS011;63447;49.446;8.666;2023-12-29T05:32:01;10.10;;;5.75;;
74894;SDS011;63447;49.446;8.666;2023-12-29T05:34:29;9.35;;;5.45;;
74894;SDS011;63447;49.446;8.666;2023-12-29T05:36:57;8.25;;;4.50;;
74894;SDS011;63447;49.446;8.666;2023-12-29T05:39:24;8.80;;;4.40;;
74894;SDS011;63447;49.446;8.666;2023-12-29T05:41:50;10.73;;;4.47;;
74894;SDS011;63447;49.446;8.666;2023-12-29T05:44:15;8.05;;;4.65;;
74894;SDS011;63447;49.446;8.666;2023-12-29T05:46:45;10.30;;;4.93;;
74894;SDS011;63447;49.446;8.666;2023-12-29T05:49:12;8.30;;;4.18;;
74894;SDS011;63447;49.446;8.666;2023-12-29T05:51:37;8.18;;;4.75;;
74894;SDS011;63447;49.446;8.666;2023-12-29T05:54:05;8.32;;;4.47;;
74894;SDS011;63447;49.446;8.666;2023-12-29T05:56:32;9.05;;;4.78;;
74894;SDS011;63447;49.446;8.666;2023-12-29T05:58:58;8.90;;;4.35;;
74894;SDS011;63447;49.446;8.666;2023-12-29T06:01:23;7.72;;;4.47;;
74894;SDS011;63447;49.446;8.666;2023-12-29T06:03:48;7.80;;;4.30;;
74894;SDS011;63447;49.446;8.666;2023-12-29T06:06:14;8.52;;;4.32;;
74894;SDS011;63447;49.446;8.666;2023-12-29T06:08:39;8.48;;;4.53;;
74894;SDS011;63447;49.446;8.666;2023-12-29T06:11:05;8.63;;;4.40;;
74894;SDS011;63447;49.446;8.666;2023-12-29T06:13:30;9.25;;;4.63;;
74894;SDS011;63447;49.446;8.666;2023-12-29T06:15:55;9.13;;;4.82;;
74894;SDS011;63447;49.446;8.666;2023-12-29T06:18:23;9.15;;;4.60;;
74894;SDS011;63447;49.446;8.666;2023-12-29T06:20:49;9.05;;;4.65;;
74894;SDS011;63447;49.446;8.666;2023-12-29T06:23:14;8.70;;;4.75;;
74894;SDS011;63447;49.446;8.666;2023-12-29T06:25:42;8.38;;;4.60;;
74894;SDS011;63447;49.446;8.666;2023-12-29T06:28:08;7.03;;;3.97;;
74894;SDS011;63447;49.446;8.666;2023-12-29T06:30:33;8.40;;;4.70;;
74894;SDS011;63447;49.446;8.666;2023-12-29T06:33:01;8.15;;;4.03;;
74894;SDS011;63447;49.446;8.666;2023-12-29T06:35:26;8.03;;;4.37;;
74894;SDS011;63447;49.446;8.666;2023-12-29T06:37:51;8.05;;;3.95;;
74894;SDS011;63447;49.446;8.666;2023-12-29T06:40:17;8.10;;;4.65;;
74894;SDS011;63447;49.446;8.666;2023-12-29T06:42:45;8.93;;;4.72;;
74894;SDS011;63447;49.446;8.666;2023-12-29T06:45:14;12.30;;;5.07;;
74894;SDS011;63447;49.446;8.666;2023-12-29T06:47:39;9.27;;;4.47;;
74894;SDS011;63447;49.446;8.666;2023-12-29T06:50:05;10.68;;;5.18;;
74894;SDS011;63447;49.446;8.666;2023-12-29T06:52:32;9.40;;;4.80;;
74894;SDS011;63447;49.446;8.666;2023-12-29T06:54:59;9.52;;;4.53;;
74894;SDS011;63447;49.446;8.666;2023-12-29T06:57:25;9.85;;;4.68;;
74894;SDS011;63447;49.446;8.666;2023-12-29T06:59:53;8.63;;;4.50;;
74894;SDS011;63447;49.446;8.666;2023-12-29T07:02:18;9.02;;;4.90;;
74894;SDS011;63447;49.446;8.666;2023-12-29T07:04:44;9.07;;;4.57;;
74894;SDS011;63447;49.446;8.666;2023-12-29T07:07:09;8.63;;;4.90;;
74894;SDS011;63447;49.446;8.666;2023-12-29T07:09:37;9.65;;;4.82;;
74894;SDS011;63447;49.446;8.666;2023-12-29T07:12:03;9.20;;;5.03;;
74894;SDS011;63447;49.446;8.666;2023-12-29T07:14:29;8.45;;;4.43;;
74894;SDS011;63447;49.446;8.666;2023-12-29T07:16:54;10.23;;;4.75;;
74894;SDS011;63447;49.446;8.666;2023-12-29T07:19:19;9.20;;;4.80;;
74894;SDS011;63447;49.446;8.666;2023-12-29T07:21:45;9.15;;;4.28;;
74894;SDS011;63447;49.446;8.666;2023-12-29T07:24:11;8.10;;;4.57;;
74894;SDS011;63447;49.446;8.666;2023-12-29T07:26:38;9.27;;;5.18;;
74894;SDS011;63447;49.446;8.666;2023-12-29T07:29:06;8.38;;;4.68;;
74894;SDS011;63447;49.446;8.666;2023-12-29T07:31:32;8.77;;;4.13;;
74894;SDS011;63447;49.446;8.666;2023-12-29T07:34:00;9.23;;;4.80;;
74894;SDS011;63447;49.446;8.666;2023-12-29T07:36:26;8.98;;;4.68;;
74894;SDS011;63447;49.446;8.666;2023-12-29T07:38:51;9.37;;;4.97;;
74894;SDS011;63447;49.446;8.666;2023-12-29T07:41:16;7.55;;;4.50;;
74894;SDS011;63447;49.446;8.666;2023-12-29T07:43:44;8.13;;;4.25;;
74894;SDS011;63447;49.446;8.666;2023-12-29T07:46:09;7.50;;;4.30;;
74894;SDS011;63447;49.446;8.666;2023-12-29T07:48:35;7.75;;;4.18;;
74894;SDS011;63447;49.446;8.666;2023-12-29T07:51:04;8.15;;;4.13;;
74894;SDS011;63447;49.446;8.666;2023-12-29T07:53:30;7.55;;;4.15;;
74894;SDS011;63447;49.446;8.666;2023-12-29T07:55:56;8.77;;;4.60;;
74894;SDS011;63447;49.446;8.666;2023-12-29T07:58:21;8.43;;;4.45;;
74894;SDS011;63447;49.446;8.666;2023-12-29T08:00:46;7.87;;;4.30;;
74894;SDS011;63447;49.446;8.666;2023-12-29T08:03:14;9.45;;;4.70;;
74894;SDS011;63447;49.446;8.666;2023-12-29T08:05:40;8.55;;;4.63;;
74894;SDS011;63447;49.446;8.666;2023-12-29T08:08:08;8.90;;;4.43;;
74894;SDS011;63447;49.446;8.666;2023-12-29T08:10:33;9.18;;;4.30;;
74894;SDS011;63447;49.446;8.666;2023-12-29T08:12:58;9.07;;;5.07;;
74894;SDS011;63447;49.446;8.666;2023-12-29T08:15:26;7.47;;;3.97;;
74894;SDS011;63447;49.446;8.666;2023-12-29T08:17:51;7.78;;;4.20;;
74894;SDS011;63447;49.446;8.666;2023-12-29T08:20:17;8.27;;;4.37;;
74894;SDS011;63447;49.446;8.666;2023-12-29T08:22:46;8.50;;;4.22;;
74894;SDS011;63447;49.446;8.666;2023-12-29T08:25:12;6.90;;;3.85;;
74894;SDS011;63447;49.446;8.666;2023-12-29T08:27:37;8.52;;;4.40;;
74894;SDS011;63447;49.446;8.666;2023-12-29T08:30:02;8.63;;;3.78;;
74894;SDS011;63447;49.446;8.666;2023-12-29T08:32:28;8.00;;;3.88;;
74894;SDS011;63447;49.446;8.666;2023-12-29T08:34:54;8.37;;;4.33;;
74894;SDS011;63447;49.446;8.666;2023-12-29T08:37:19;6.77;;;3.57;;
74894;SDS011;63447;49.446;8.666;2023-12-29T08:39:47;6.53;;;3.47;;
74894;SDS011;63447;49.446;8.666;2023-12-29T08:42:13;6.47;;;3.53;;
74894;SDS011;63447;49.446;8.666;2023-12-29T08:44:39;5.90;;;3.13;;
74894;SDS011;63447;49.446;8.666;2023-12-29T08:47:06;7.68;;;3.53;;
74894;SDS011;63447;49.446;8.666;2023-12-29T08:49:33;7.07;;;3.45;;
74894;SDS011;63447;49.446;8.666;2023-12-29T08:52:00;8.48;;;3.60;;
74894;SDS011;63447;49.446;8.666;2023-12-29T08:54:25;8.00;;;4.05;;
74894;SDS011;63447;49.446;8.666;2023-12-29T08:56:53;6.60;;;3.70;;
74894;SDS011;63447;49.446;8.666;2023-12-29T08:59:18;7.50;;;3.75;;
74894;SDS011;63447;49.446;8.666;2023-12-29T09:01:44;6.85;;;3.53;;
74894;SDS011;63447;49.446;8.666;2023-12-29T09:04:09;6.75;;;3.80;;
74894;SDS011;63447;49.446;8.666;2023-12-29T09:06:34;7.00;;;3.35;;
74894;SDS011;63447;49.446;8.666;2023-12-29T09:09:02;7.25;;;4.10;;
74894;SDS011;63447;49.446;8.666;2023-12-29T09:11:27;6.57;;;3.38;;
74894;SDS011;63447;49.446;8.666;2023-12-29T09:13:55;8.10;;;3.70;;
74894;SDS011;63447;49.446;8.666;2023-12-29T09:16:21;8.60;;;3.63;;
74894;SDS011;63447;49.446;8.666;2023-12-29T09:18:46;11.52;;;5.32;;
74894;SDS011;63447;49.446;8.666;2023-12-29T09:21:12;8.02;;;4.18;;
74894;SDS011;63447;49.446;8.666;2023-12-29T09:23:37;8.00;;;4.05;;
74894;SDS011;63447;49.446;8.666;2023-12-29T09:26:03;7.60;;;3.70;;
74894;SDS011;63447;49.446;8.666;2023-12-29T09:28:30;6.65;;;3.63;;
74894;SDS011;63447;49.446;8.666;2023-12-29T09:30:57;9.18;;;3.80;;
74894;SDS011;63447;49.446;8.666;2023-12-29T09:33:25;8.32;;;4.05;;
74894;SDS011;63447;49.446;8.666;2023-12-29T09:35:51;7.35;;;4.13;;
74894;SDS011;63447;49.446;8.666;2023-12-29T09:38:16;6.78;;;3.50;;
74894;SDS011;63447;49.446;8.666;2023-12-29T09:40:41;8.07;;;3.80;;
74894;SDS011;63447;49.446;8.666;2023-12-29T09:43:09;7.20;;;3.90;;
74894;SDS011;63447;49.446;8.666;2023-12-29T09:45:38;7.82;;;4.25;;
74894;SDS011;63447;49.446;8.666;2023-12-29T09:48:07;7.35;;;4.22;;
74894;SDS011;63447;49.446;8.666;2023-12-29T09:50:37;9.20;;;4.97;;
74894;SDS011;63447;49.446;8.666;2023-12-29T09:53:02;7.95;;;4.45;;
74894;SDS011;63447;49.446;8.666;2023-12-29T09:55:29;8.52;;;4.15;;
74894;SDS011;63447;49.446;8.666;2023-12-29T09:57:57;10.00;;;5.15;;
74894;SDS011;63447;49.446;8.666;2023-12-29T10:00:25;7.97;;;3.88;;
74894;SDS011;63447;49.446;8.666;2023-12-29T10:02:51;7.45;;;4.03;;
74894;SDS011;63447;49.446;8.666;2023-12-29T10:05:19;6.72;;;3.63;;
74894;SDS011;63447;49.446;8.666;2023-12-29T10:07:45;8.10;;;3.95;;
74894;SDS011;63447;49.446;8.666;2023-12-29T10:10:14;7.47;;;3.90;;
74894;SDS011;63447;49.446;8.666;2023-12-29T10:12:43;6.53;;;3.45;;
74894;SDS011;63447;49.446;8.666;2023-12-29T10:15:35;6.13;;;2.88;;
74894;SDS011;63447;49.446;8.666;2023-12-29T10:18:28;5.63;;;2.70;;
74894;SDS011;63447;49.446;8.666;2023-12-29T10:23:58;5.00;;;2.53;;
74894;SDS011;63447;49.446;8.666;2023-12-29T10:26:38;5.10;;;2.53;;
74894;SDS011;63447;49.446;8.666;2023-12-29T10:29:05;4.72;;;2.55;;
74894;SDS011;63447;49.446;8.666;2023-12-29T10:31:36;5.90;;;2.53;;
74894;SDS011;63447;49.446;8.666;2023-12-29T10:34:17;5.43;;;2.42;;
74894;SDS011;63447;49.446;8.666;2023-12-29T10:36:53;6.13;;;2.58;;
74894;SDS011;63447;49.446;8.666;2023-12-29T10:39:19;4.80;;;2.33;;
74894;SDS011;63447;49.446;8.666;2023-12-29T10:41:44;6.25;;;2.83;;
74894;SDS011;63447;49.446;8.666;2023-12-29T10:44:10;7.05;;;3.50;;
74894;SDS011;63447;49.446;8.666;2023-12-29T10:46:35;5.72;;;2.80;;
74894;SDS011;63447;49.446;8.666;2023-12-29T10:49:10;5.57;;;2.80;;
74894;SDS011;63447;49.446;8.666;2023-12-29T10:51:37;4.78;;;2.50;;
74894;SDS011;63447;49.446;8.666;2023-12-29T10:54:03;7.65;;;2.97;;
74894;SDS011;63447;49.446;8.666;2023-12-29T10:56:32;5.72;;;2.72;;
74894;SDS011;63447;49.446;8.666;2023-12-29T10:59:04;6.22;;;3.20;;
74894;SDS011;63447;49.446;8.666;2023-12-29T11:01:31;5.07;;;2.20;;
74894;SDS011;63447;49.446;8.666;2023-12-29T11:04:01;5.28;;;2.53;;
74894;SDS011;63447;49.446;8.666;2023-12-29T11:06:28;5.13;;;2.28;;
74894;SDS011;63447;49.446;8.666;2023-12-29T11:08:55;5.90;;;2.58;;
74894;SDS011;63447;49.446;8.666;2023-12-29T11:11:21;4.32;;;2.20;;
74894;SDS011;63447;49.446;8.666;2023-12-29T11:13:48;5.20;;;1.90;;
74894;SDS011;63447;49.446;8.666;2023-12-29T11:16:14;4.88;;;2.05;;
74894;SDS011;63447;49.446;8.666;2023-12-29T11:18:43;4.13;;;1.70;;
74894;SDS011;63447;49.446;8.666;2023-12-29T11:21:14;4.75;;;1.77;;
74894;SDS011;63447;49.446;8.666;2023-12-29T11:23:42;4.22;;;1.60;;
74894;SDS011;63447;49.446;8.666;2023-12-29T11:26:12;4.72;;;1.58;;
74894;SDS011;63447;49.446;8.666;2023-12-29T11:28:38;3.03;;;1.05;;
74894;SDS011;63447;49.446;8.666;2023-12-29T11:31:04;3.95;;;1.10;;
74894;SDS011;63447;49.446;8.666;2023-12-29T11:33:40;5.07;;;0.98;;
74894;SDS011;63447;49.446;8.666;2023-12-29T11:43:57;4.53;;;1.67;;
74894;SDS011;63447;49.446;8.666;2023-12-29T11:46:32;4.25;;;1.50;;
74894;SDS011;63447;49.446;8.666;2023-12-29T11:49:08;3.15;;;1.23;;
74894;SDS011;63447;49.446;8.666;2023-12-29T11:51:43;3.80;;;1.40;;
74894;SDS011;63447;49.446;8.666;2023-12-29T11:54:21;3.72;;;1.23;;
74894;SDS011;63447;49.446;8.666;2023-12-29T11:56:50;5.47;;;2.00;;
74894;SDS011;63447;49.446;8.666;2023-12-29T11:59:19;4.15;;;1.35;;
74894;SDS011;63447;49.446;8.666;2023-12-29T12:01:55;4.03;;;1.52;;
74894;SDS011;63447;49.446;8.666;2023-12-29T12:09:50;2.22;;;0.73;;
74894;SDS011;63447;49.446;8.666;2023-12-29T12:12:39;3.30;;;0.90;;
74894;SDS011;63447;49.446;8.666;2023-12-29T12:17:54;4.45;;;1.52;;
74894;SDS011;63447;49.446;8.666;2023-12-29T12:20:20;2.55;;;0.80;;
74894;SDS011;63447;49.446;8.666;2023-12-29T12:22:45;3.00;;;0.93;;
74894;SDS011;63447;49.446;8.666;2023-12-29T12:25:17;2.63;;;0.75;;
74894;SDS011;63447;49.446;8.666;2023-12-29T12:27:43;2.67;;;0.80;;
74894;SDS011;63447;49.446;8.666;2023-12-29T12:30:08;2.67;;;0.85;;
74894;SDS011;63447;49.446;8.666;2023-12-29T12:32:37;2.70;;;0.82;;
74894;SDS011;63447;49.446;8.666;2023-12-29T12:35:05;3.60;;;1.00;;
74894;SDS011;63447;49.446;8.666;2023-12-29T12:37:39;3.03;;;0.90;;
74894;SDS011;63447;49.446;8.666;2023-12-29T12:40:04;2.93;;;0.97;;
74894;SDS011;63447;49.446;8.666;2023-12-29T12:42:30;2.78;;;1.02;;
74894;SDS011;63447;49.446;8.666;2023-12-29T12:44:56;3.55;;;1.08;;
74894;SDS011;63447;49.446;8.666;2023-12-29T12:47:33;2.60;;;0.90;;
74894;SDS011;63447;49.446;8.666;2023-12-29T12:50:04;2.92;;;1.02;;
74894;SDS011;63447;49.446;8.666;2023-12-29T12:52:31;3.60;;;1.10;;
74894;SDS011;63447;49.446;8.666;2023-12-29T12:54:59;2.40;;;0.82;;
74894;SDS011;63447;49.446;8.666;2023-12-29T12:57:27;3.03;;;1.05;;
74894;SDS011;63447;49.446;8.666;2023-12-29T12:59:54;5.90;;;1.20;;
74894;SDS011;63447;49.446;8.666;2023-12-29T13:02:21;3.63;;;1.33;;
74894;SDS011;63447;49.446;8.666;2023-12-29T13:04:48;5.47;;;1.58;;
74894;SDS011;63447;49.446;8.666;2023-12-29T13:07:19;3.63;;;1.20;;
74894;SDS011;63447;49.446;8.666;2023-12-29T13:09:47;3.40;;;1.30;;
74894;SDS011;63447;49.446;8.666;2023-12-29T13:14:42;5.28;;;1.48;;
74894;SDS011;63447;49.446;8.666;2023-12-29T13:17:09;4.28;;;1.17;;
74894;SDS011;63447;49.446;8.666;2023-12-29T13:19:36;4.35;;;1.40;;
74894;SDS011;63447;49.446;8.666;2023-12-29T13:22:09;3.50;;;1.10;;
74894;SDS011;63447;49.446;8.666;2023-12-29T13:24:45;3.05;;;1.10;;
74894;SDS011;63447;49.446;8.666;2023-12-29T13:27:14;3.13;;;1.13;;
74894;SDS011;63447;49.446;8.666;2023-12-29T13:29:45;3.25;;;1.25;;
74894;SDS011;63447;49.446;8.666;2023-12-29T13:32:25;4.55;;;1.45;;
74894;SDS011;63447;49.446;8.666;2023-12-29T13:35:02;4.90;;;1.40;;
74894;SDS011;63447;49.446;8.666;2023-12-29T13:40:22;3.60;;;1.33;;
74894;SDS011;63447;49.446;8.666;2023-12-29T13:42:53;3.40;;;1.27;;
74894;SDS011;63447;49.446;8.666;2023-12-29T13:45:23;3.75;;;1.50;;
74894;SDS011;63447;49.446;8.666;2023-12-29T13:47:49;3.55;;;1.30;;
74894;SDS011;63447;49.446;8.666;2023-12-29T13:50:15;4.43;;;1.33;;
74894;SDS011;63447;49.446;8.666;2023-12-29T13:52:41;3.72;;;1.38;;
74894;SDS011;63447;49.446;8.666;2023-12-29T13:55:09;3.60;;;1.35;;
74894;SDS011;63447;49.446;8.666;2023-12-29T13:57:35;3.60;;;1.10;;
74894;SDS011;63447;49.446;8.666;2023-12-29T14:03:02;4.95;;;1.40;;
74894;SDS011;63447;49.446;8.666;2023-12-29T14:10:29;3.38;;;1.10;;
74894;SDS011;63447;49.446;8.666;2023-12-29T14:13:07;3.20;;;1.15;;
74894;SDS011;63447;49.446;8.666;2023-12-29T14:15:42;3.90;;;1.33;;
74894;SDS011;63447;49.446;8.666;2023-12-29T14:20:37;3.20;;;1.10;;
74894;SDS011;63447;49.446;8.666;2023-12-29T14:23:06;4.35;;;1.40;;
74894;SDS011;63447;49.446;8.666;2023-12-29T14:25:35;3.63;;;1.30;;
74894;SDS011;63447;49.446;8.666;2023-12-29T14:28:20;4.28;;;1.40;;
74894;SDS011;63447;49.446;8.666;2023-12-29T14:30:47;4.18;;;1.40;;
74894;SDS011;63447;49.446;8.666;2023-12-29T14:33:15;4.65;;;1.65;;
74894;SDS011;63447;49.446;8.666;2023-12-29T14:35:43;3.80;;;1.10;;
74894;SDS011;63447;49.446;8.666;2023-12-29T14:38:08;3.22;;;1.15;;
74894;SDS011;63447;49.446;8.666;2023-12-29T14:40:44;3.17;;;1.10;;
74894;SDS011;63447;49.446;8.666;2023-12-29T14:43:12;3.67;;;1.08;;
74894;SDS011;63447;49.446;8.666;2023-12-29T14:45:40;5.07;;;1.10;;
74894;SDS011;63447;49.446;8.666;2023-12-29T14:48:05;4.55;;;1.23;;
74894;SDS011;63447;49.446;8.666;2023-12-29T14:50:32;3.50;;;1.30;;
74894;SDS011;63447;49.446;8.666;2023-12-29T14:52:57;6.43;;;1.40;;
74894;SDS011;63447;49.446;8.666;2023-12-29T14:55:23;4.80;;;1.80;;
74894;SDS011;63447;49.446;8.666;2023-12-29T14:57:51;3.50;;;1.15;;
74894;SDS011;63447;49.446;8.666;2023-12-29T15:00:16;3.67;;;1.13;;
74894;SDS011;63447;49.446;8.666;2023-12-29T15:02:42;3.40;;;1.30;;
74894;SDS011;63447;49.446;8.666;2023-12-29T15:05:10;4.45;;;1.42;;
74894;SDS011;63447;49.446;8.666;2023-12-29T15:07:36;4.40;;;1.35;;
74894;SDS011;63447;49.446;8.666;2023-12-29T15:10:01;3.47;;;1.47;;
74894;SDS011;63447;49.446;8.666;2023-12-29T15:12:26;5.32;;;1.60;;
74894;SDS011;63447;49.446;8.666;2023-12-29T15:14:54;3.63;;;1.35;;
74894;SDS011;63447;49.446;8.666;2023-12-29T15:17:19;3.97;;;1.30;;
74894;SDS011;63447;49.446;8.666;2023-12-29T15:19:45;4.67;;;1.60;;
74894;SDS011;63447;49.446;8.666;2023-12-29T15:22:10;4.30;;;1.63;;
74894;SDS011;63447;49.446;8.666;2023-12-29T15:24:38;3.80;;;1.48;;
74894;SDS011;63447;49.446;8.666;2023-12-29T15:27:05;4.07;;;1.63;;
74894;SDS011;63447;49.446;8.666;2023-12-29T15:29:31;3.60;;;1.33;;